createdAt,value
2023-08-07T00:00:11.428Z,95591.28
2023-08-07T00:01:16.071Z,95587.06
2023-08-07T00:02:19.079Z,95590.78
2023-08-07T00:03:20.603Z,95600.56
2023-08-07T00:04:22.168Z,95609.59
2023-08-07T00:05:30.026Z,95599.31
2023-08-07T00:06:31.621Z,95610.19
2023-08-07T00:07:35.775Z,95606.47
2023-08-07T00:08:37.275Z,95594.78
2023-08-07T00:09:39.151Z,95603.81
2023-08-07T00:10:40.808Z,95605.69
2023-08-07T00:11:44.436Z,95600.88
2023-08-07T00:12:45.988Z,95579.22
2023-08-07T00:13:50.442Z,95600.41
2023-08-07T00:14:52.275Z,95595.88
2023-08-07T00:15:54.100Z,95601.47
2023-08-07T00:16:55.730Z,95590.88
2023-08-07T00:17:57.479Z,95594.59
2023-08-07T00:18:59.390Z,95595.66
2023-08-07T00:20:08.382Z,95599.41
2023-08-07T00:21:15.779Z,95580.88
2023-08-07T00:22:17.405Z,95589.38
2023-08-07T00:23:18.921Z,95599.97
2023-08-07T00:24:20.465Z,95590.47
2023-08-07T00:25:22.019Z,95600.25
2023-08-07T00:26:29.784Z,95598.69
2023-08-07T00:27:33.263Z,95567.22
2023-08-07T00:28:34.827Z,95588.97
2023-08-07T00:29:38.921Z,95582.59
2023-08-07T00:30:41.018Z,95588.97
2023-08-07T00:31:45.724Z,95597.22
2023-08-07T00:32:47.518Z,95592.69
2023-08-07T00:33:49.173Z,95581.34
2023-08-07T00:34:50.713Z,95590.63
2023-08-07T00:35:52.305Z,95589.84
2023-08-07T00:36:54.242Z,95594.34
2023-08-07T00:38:02.315Z,95599.66
2023-08-07T00:39:03.886Z,95574.25
2023-08-07T00:40:05.478Z,95582.19
2023-08-07T00:41:07.067Z,95592.28
2023-08-07T00:42:10.955Z,95580.91
2023-08-07T00:43:12.483Z,95587.78
2023-08-07T00:44:14.073Z,95582.50
2023-08-07T00:45:15.651Z,95583.56
2023-08-07T00:46:17.262Z,95577.50
2023-08-07T00:47:34.551Z,95589.13
2023-08-07T00:48:36.205Z,95578.88
2023-08-07T00:49:39.282Z,95582.28
2023-08-07T00:50:47.300Z,95580.41
2023-08-07T00:51:49.467Z,95577.00
2023-08-07T00:52:51.497Z,95588.63
2023-08-07T00:53:57.150Z,95587.88
2023-08-07T00:54:58.777Z,95587.88
2023-08-07T00:56:00.408Z,95579.94
2023-08-07T00:57:01.904Z,95579.94
2023-08-07T00:58:03.463Z,95587.09
2023-08-07T00:59:04.990Z,95587.88
2023-08-07T01:00:09.609Z,95582.56
2023-08-07T01:01:11.147Z,95593.16
2023-08-07T01:02:12.852Z,95587.09
2023-08-07T01:03:14.566Z,95593.94
2023-08-07T01:04:16.358Z,95593.16
2023-08-07T01:05:20.824Z,95595.03
2023-08-07T01:06:22.412Z,95596.88
2023-08-07T01:07:26.074Z,95559.31
2023-08-07T01:08:27.612Z,95585.00
2023-08-07T01:09:29.385Z,95601.97
2023-08-07T01:10:31.032Z,95598.50
2023-08-07T01:11:32.537Z,95595.09
2023-08-07T01:12:34.148Z,95587.16
2023-08-07T01:14:09.068Z,95593.53
2023-08-07T01:15:00.992Z,95594.31
2023-08-07T01:16:03.122Z,95594.59
2023-08-07T01:17:05.109Z,95582.47
2023-08-07T01:18:06.831Z,95595.69
2023-08-07T01:19:08.414Z,95600.16
2023-08-07T01:20:16.106Z,95597.84
2023-08-07T01:21:17.647Z,95591.75
2023-08-07T01:22:19.126Z,95595.97
2023-08-07T01:23:20.802Z,95595.97
2023-08-07T01:24:25.666Z,95581.16
2023-08-07T01:25:27.279Z,95589.91
2023-08-07T01:26:28.852Z,95593.59
2023-08-07T01:27:32.760Z,95607.59
2023-08-07T01:28:34.713Z,95594.38
2023-08-07T01:29:36.382Z,95602.63
2023-08-07T01:30:38.008Z,95598.91
2023-08-07T01:31:39.639Z,95587.81
2023-08-07T01:32:41.301Z,95597.63
2023-08-07T01:33:42.970Z,95604.78
2023-08-07T01:34:44.758Z,95602.41
2023-08-07T01:35:46.402Z,95601.31
2023-08-07T01:36:48.071Z,95598.69
2023-08-07T01:37:49.544Z,95592.59
2023-08-07T01:38:51.232Z,95603.19
2023-08-07T01:39:52.780Z,95599.00
2023-08-07T01:40:54.255Z,95604.28
2023-08-07T01:41:55.751Z,95600.06
2023-08-07T01:42:57.302Z,95600.31
2023-08-07T01:43:58.828Z,95593.47
2023-08-07T01:45:00.316Z,95588.19
2023-08-07T01:46:01.889Z,95595.31
2023-08-07T01:47:12.896Z,95574.47
2023-08-07T01:48:14.623Z,95601.97
2023-08-07T01:49:18.918Z,95594.03
2023-08-07T01:50:20.667Z,95597.78
2023-08-07T01:51:22.205Z,95592.75
2023-08-07T01:52:24.140Z,95598.84
2023-08-07T01:53:39.024Z,95596.44
2023-08-07T01:54:40.836Z,95605.47
2023-08-07T01:55:47.648Z,95599.41
2023-08-07T01:56:49.217Z,95598.09
2023-08-07T01:59:14.923Z,95600.25
2023-08-07T02:00:16.401Z,95603.16
2023-08-07T02:01:17.916Z,95602.88
2023-08-07T02:02:19.642Z,95606.63
2023-08-07T02:03:21.554Z,95587.28
2023-08-07T02:04:23.492Z,95599.25
2023-08-07T02:05:27.871Z,95604.03
2023-08-07T02:06:33.601Z,95596.38
2023-08-07T02:07:35.293Z,95608.03
2023-08-07T02:08:36.985Z,95607.53
2023-08-07T02:09:38.791Z,95605.97
2023-08-07T02:10:49.468Z,95613.13
2023-08-07T02:11:51.020Z,95607.03
2023-08-07T02:12:53.580Z,95589.31
2023-08-07T02:13:55.438Z,95614.19
2023-08-07T02:15:13.685Z,95600.47
2023-08-07T02:16:24.736Z,95606.03
2023-08-07T02:17:26.398Z,95598.13
2023-08-07T02:18:38.693Z,95609.47
2023-08-07T02:19:40.254Z,95602.59
2023-08-07T02:20:41.807Z,95607.09
2023-08-07T02:21:43.418Z,95604.47
2023-08-07T02:22:44.981Z,95608.47
2023-08-07T02:23:46.522Z,95612.16
2023-08-07T02:24:48.202Z,95609.84
2023-08-07T02:25:49.766Z,95609.84
2023-08-07T02:26:51.540Z,95614.63
2023-08-07T02:27:53.149Z,95602.97
2023-08-07T02:28:54.767Z,95621.75
2023-08-07T02:29:56.381Z,95600.09
2023-08-07T02:30:57.939Z,95615.19
2023-08-07T02:31:59.590Z,95611.75
2023-08-07T02:33:01.198Z,95608.59
2023-08-07T02:34:02.789Z,95618.41
2023-08-07T02:35:07.481Z,95613.41
2023-08-07T02:36:16.452Z,95585.66
2023-08-07T02:37:27.115Z,95601.00
2023-08-07T02:38:28.625Z,95618.22
2023-08-07T02:39:39.227Z,95612.44
2023-08-07T02:40:49.948Z,95629.38
2023-08-07T02:41:51.499Z,95630.44
2023-08-07T02:42:53.072Z,95628.06
2023-08-07T02:43:54.659Z,95629.94
2023-08-07T02:44:56.538Z,95636.00
2023-08-07T02:45:58.370Z,95628.06
2023-08-07T02:46:59.917Z,95616.72
2023-08-07T02:48:01.597Z,95629.16
2023-08-07T02:49:03.529Z,95614.09
2023-08-07T02:50:05.200Z,95608.81
2023-08-07T02:51:09.397Z,95615.16
2023-08-07T02:52:14.221Z,95631.31
2023-08-07T02:53:15.710Z,95625.25
2023-08-07T02:54:25.958Z,95613.34
2023-08-07T02:55:27.631Z,95630.81
2023-08-07T02:56:29.259Z,95637.91
2023-08-07T02:57:30.813Z,95640.56
2023-08-07T02:58:33.591Z,95635.28
2023-08-07T02:59:36.758Z,95622.88
2023-08-07T03:00:38.396Z,95630.00
2023-08-07T03:01:39.976Z,95633.44
2023-08-07T03:02:41.766Z,95619.41
2023-08-07T03:03:47.665Z,95630.81
2023-08-07T03:04:54.469Z,95629.22
2023-08-07T03:05:56.266Z,95633.72
2023-08-07T03:06:58.341Z,95637.41
2023-08-07T03:08:00.091Z,95636.63
2023-08-07T03:09:01.644Z,95631.06
2023-08-07T03:10:03.185Z,95640.06
2023-08-07T03:11:04.745Z,95639.28
2023-08-07T03:12:08.182Z,95651.44
2023-08-07T03:13:09.842Z,95651.72
2023-08-07T03:14:11.507Z,95641.94
2023-08-07T03:15:13.012Z,95652.50
2023-08-07T03:17:37.439Z,95636.13
2023-08-07T03:18:44.415Z,95662.06
2023-08-07T03:19:46.081Z,95648.84
2023-08-07T03:20:47.906Z,95644.63
2023-08-07T03:21:50.837Z,95636.22
2023-08-07T03:22:52.558Z,95658.13
2023-08-07T03:23:55.266Z,95662.63
2023-08-07T03:24:56.884Z,95650.47
2023-08-07T03:26:08.553Z,95651.25
2023-08-07T03:27:25.431Z,95652.34
2023-08-07T03:28:27.135Z,95657.91
2023-08-07T03:29:28.982Z,95677.47
2023-08-07T03:30:30.819Z,95674.84
2023-08-07T03:31:32.367Z,95665.03
2023-08-07T03:32:36.624Z,95671.38
2023-08-07T03:33:41.673Z,95666.91
2023-08-07T03:34:43.241Z,95665.03
2023-08-07T03:35:45.013Z,95671.38
2023-08-07T03:36:46.523Z,95669.00
2023-08-07T03:37:47.983Z,95673.50
2023-08-07T03:38:51.216Z,95668.22
2023-08-07T03:39:53.237Z,95663.22
2023-08-07T03:40:54.898Z,95666.16
2023-08-07T03:41:56.642Z,95661.16
2023-08-07T03:42:59.831Z,95668.31
2023-08-07T03:44:01.469Z,95664.06
2023-08-07T03:45:03.132Z,95655.38
2023-08-07T03:46:04.695Z,95662.78
2023-08-07T03:47:08.958Z,95688.44
2023-08-07T03:48:10.644Z,95672.56
2023-08-07T03:49:13.938Z,95680.50
2023-08-07T03:50:18.401Z,95685.28
2023-08-07T03:51:20.018Z,95694.25
2023-08-07T03:52:21.714Z,95686.59
2023-08-07T03:53:23.248Z,95683.97
2023-08-07T03:54:24.932Z,95687.41
2023-08-07T03:55:31.600Z,95671.84
2023-08-07T03:56:33.081Z,95697.16
2023-08-07T03:57:34.606Z,95694.53
2023-08-07T03:58:36.401Z,95697.44
2023-08-07T03:59:37.917Z,95700.09
2023-08-07T04:00:40.670Z,95695.59
2023-08-07T04:01:42.481Z,95701.94
2023-08-07T04:02:44.430Z,95715.16
2023-08-07T04:03:45.984Z,95726.50
2023-08-07T04:04:55.173Z,95709.88
2023-08-07T04:05:56.774Z,95703.53
2023-08-07T04:06:58.439Z,95714.09
2023-08-07T04:08:00.128Z,95712.25
2023-08-07T04:09:01.843Z,95715.66
2023-08-07T04:10:03.534Z,95722.81
2023-08-07T04:11:07.113Z,95712.25
2023-08-07T04:12:08.601Z,95725.44
2023-08-07T04:13:10.285Z,95720.16
2023-08-07T04:14:11.791Z,95728.88
2023-08-07T04:15:14.497Z,95729.69
2023-08-07T04:16:16.181Z,95725.94
2023-08-07T04:17:17.870Z,95728.88
2023-08-07T04:18:19.566Z,95730.72
2023-08-07T04:19:21.174Z,95736.78
2023-08-07T04:20:22.781Z,95732.59
2023-08-07T04:21:24.591Z,95738.38
2023-08-07T04:22:26.088Z,95744.44
2023-08-07T04:23:27.655Z,95727.81
2023-08-07T04:24:29.137Z,95729.69
2023-08-07T04:25:30.705Z,95742.06
2023-08-07T04:26:32.317Z,95738.38
2023-08-07T04:27:35.587Z,95749.72
2023-08-07T04:28:37.089Z,95729.38
2023-08-07T04:29:38.577Z,95733.88
2023-08-07T04:30:40.343Z,95747.06
2023-08-07T04:31:44.221Z,95746.31
2023-08-07T04:32:48.639Z,95745.53
2023-08-07T04:33:50.237Z,95743.94
2023-08-07T04:34:51.809Z,95751.06
2023-08-07T04:35:53.619Z,95761.63
2023-08-07T04:36:55.671Z,95757.13
2023-08-07T04:37:57.594Z,95754.22
2023-08-07T04:39:05.132Z,95760.28
2023-08-07T04:40:06.894Z,95760.78
2023-08-07T04:41:08.630Z,95745.72
2023-08-07T04:42:10.156Z,95750.75
2023-08-07T04:43:11.928Z,95763.16
2023-08-07T04:44:16.529Z,95755.25
2023-08-07T04:45:18.072Z,95765.03
2023-08-07T04:46:20.285Z,95753.66
2023-08-07T04:47:22.389Z,95762.38
2023-08-07T04:48:26.573Z,95743.09
2023-08-07T04:49:28.117Z,95765.03
2023-08-07T04:50:29.692Z,95757.38
2023-08-07T04:51:34.064Z,95770.59
2023-08-07T04:52:43.353Z,95767.94
2023-08-07T04:53:48.096Z,95763.72
2023-08-07T04:54:55.832Z,95765.84
2023-08-07T04:56:06.116Z,95769.28
2023-08-07T04:57:07.671Z,95773.50
2023-08-07T04:58:09.262Z,95770.06
2023-08-07T04:59:10.732Z,95776.13
2023-08-07T05:00:12.429Z,95775.09
2023-08-07T05:01:16.163Z,95769.81
2023-08-07T05:02:17.943Z,95767.44
2023-08-07T05:03:25.479Z,95784.06
2023-08-07T05:04:27.129Z,95765.84
2023-08-07T05:05:28.897Z,95780.63
2023-08-07T05:06:30.509Z,95778.00
2023-08-07T05:07:32.196Z,95771.13
2023-08-07T05:08:33.702Z,95770.84
2023-08-07T05:09:35.307Z,95779.84
2023-08-07T05:10:36.894Z,95782.50
2023-08-07T05:11:38.488Z,95776.41
2023-08-07T05:12:40.307Z,95788.84
2023-08-07T05:13:41.849Z,95798.63
2023-08-07T05:14:43.313Z,95780.91
2023-08-07T05:15:45.049Z,95781.69
2023-08-07T05:16:46.563Z,95784.34
2023-08-07T05:17:50.982Z,95778.53
2023-08-07T05:18:52.764Z,95791.75
2023-08-07T05:19:58.712Z,95798.09
2023-08-07T05:21:00.450Z,95789.38
2023-08-07T05:22:02.194Z,95795.47
2023-08-07T05:23:03.736Z,95797.03
2023-08-07T05:24:05.278Z,95800.44
2023-08-07T05:25:06.820Z,95807.31
2023-08-07T05:26:11.269Z,95790.69
2023-08-07T05:27:14.757Z,95813.38
2023-08-07T05:28:16.232Z,95814.47
2023-08-07T05:29:26.763Z,95806.28
2023-08-07T05:30:28.773Z,95818.66
2023-08-07T05:31:30.350Z,95816.84
2023-08-07T05:32:34.745Z,95818.66
2023-08-07T05:33:36.341Z,95817.88
2023-08-07T05:34:37.886Z,95815.25
2023-08-07T05:35:39.663Z,95829.22
2023-08-07T05:36:41.501Z,95831.09
2023-08-07T05:37:42.964Z,95819.47
2023-08-07T05:38:44.478Z,95809.69
2023-08-07T05:39:46.370Z,95810.75
2023-08-07T05:40:47.896Z,95818.66
2023-08-07T05:41:49.361Z,95804.69
2023-08-07T05:42:50.965Z,95817.09
2023-08-07T05:43:52.529Z,95824.53
2023-08-07T05:44:55.830Z,95821.88
2023-08-07T05:46:03.485Z,95822.66
2023-08-07T05:47:08.196Z,95821.56
2023-08-07T05:48:16.113Z,95830.31
2023-08-07T05:49:20.405Z,95825.81
2023-08-07T05:50:25.137Z,95826.59
2023-08-07T05:51:29.233Z,95826.06
2023-08-07T05:52:33.959Z,95834.75
2023-08-07T05:53:35.496Z,95826.06
2023-08-07T05:54:37.329Z,95836.34
2023-08-07T05:57:08.528Z,95829.47
2023-08-07T05:58:16.102Z,95833.97
2023-08-07T05:59:17.609Z,95833.19
2023-08-07T06:01:43.403Z,95833.19
2023-08-07T06:02:57.109Z,95844.53
2023-08-07T06:04:08.104Z,95840.03
2023-08-07T06:05:09.776Z,95848.75
2023-08-07T06:06:11.350Z,95842.69
2023-08-07T06:07:18.754Z,95840.81
2023-08-07T06:08:20.584Z,95837.41
2023-08-07T06:09:22.172Z,95854.03
2023-08-07T06:10:23.724Z,95856.97
2023-08-07T06:11:28.243Z,95841.13
2023-08-07T06:12:29.885Z,95845.88
2023-08-07T06:13:36.468Z,95856.97
2023-08-07T06:14:38.840Z,95856.16
2023-08-07T06:15:40.646Z,95863.31
2023-08-07T06:16:42.396Z,95848.53
2023-08-07T06:17:43.993Z,95851.97
2023-08-07T06:18:45.812Z,95848.53
2023-08-07T06:19:47.561Z,95865.16
2023-08-07T06:20:49.264Z,95860.94
2023-08-07T06:21:50.872Z,95854.09
2023-08-07T06:22:54.322Z,95849.06
2023-08-07T06:23:56.103Z,95869.13
2023-08-07T06:25:01.011Z,95861.19
2023-08-07T06:26:02.687Z,95868.34
2023-08-07T06:27:04.168Z,95868.34
2023-08-07T06:28:05.723Z,95850.63
2023-08-07T06:29:08.705Z,95865.44
2023-08-07T06:30:10.406Z,95869.94
2023-08-07T06:31:12.198Z,95862.78
2023-08-07T06:32:22.684Z,95867.81
2023-08-07T06:33:24.271Z,95871.22
2023-08-07T06:34:25.812Z,95870.19
2023-08-07T06:35:27.345Z,95879.66
2023-08-07T06:36:28.909Z,95877.53
2023-08-07T06:37:30.401Z,95872.25
2023-08-07T06:38:32.156Z,95870.91
2023-08-07T06:39:36.612Z,95870.91
2023-08-07T06:40:38.258Z,95875.13
2023-08-07T06:41:39.916Z,95873.53
2023-08-07T06:42:41.581Z,95862.97
2023-08-07T06:43:43.130Z,95877.78
2023-08-07T06:44:44.722Z,95885.69
2023-08-07T06:45:52.475Z,95861.94
2023-08-07T06:46:54.308Z,95877.00
2023-08-07T06:47:55.902Z,95874.34
2023-08-07T06:48:57.502Z,95883.84
2023-08-07T06:49:59.046Z,95880.41
2023-08-07T06:51:00.601Z,95880.41
2023-08-07T06:52:02.154Z,95883.84
2023-08-07T06:53:03.705Z,95875.91
2023-08-07T06:54:05.350Z,95881.19
2023-08-07T06:55:06.782Z,95881.97
2023-08-07T06:56:08.474Z,95880.41
2023-08-07T06:57:10.277Z,95889.13
2023-08-07T06:58:11.824Z,95883.06
2023-08-07T06:59:13.247Z,95884.91
2023-08-07T07:00:14.972Z,95874.34
2023-08-07T07:01:16.976Z,95862.72
2023-08-07T07:02:18.717Z,95887.56
2023-08-07T07:03:28.970Z,95890.97
2023-08-07T07:04:30.496Z,95900.78
2023-08-07T07:05:32.061Z,95903.41
2023-08-07T07:06:33.569Z,95896.28
2023-08-07T07:07:35.102Z,95892.56
2023-08-07T07:08:36.640Z,95903.13
2023-08-07T07:09:40.928Z,95899.44
2023-08-07T07:10:42.456Z,95895.19
2023-08-07T07:11:43.997Z,95894.16
2023-08-07T07:12:45.536Z,95910.00
2023-08-07T07:13:47.052Z,95899.44
2023-08-07T07:14:48.643Z,95907.34
2023-08-07T07:15:57.850Z,95919.47
2023-08-07T07:17:00.729Z,95912.38
2023-08-07T07:18:02.386Z,95908.66
2023-08-07T07:19:06.903Z,95901.50
2023-08-07T07:20:08.507Z,95916.31
2023-08-07T07:21:10.289Z,95921.31
2023-08-07T07:22:15.241Z,95924.75
2023-08-07T07:23:16.774Z,95915.47
2023-08-07T07:24:18.371Z,95901.22
2023-08-07T07:25:19.918Z,95913.63
2023-08-07T07:26:21.503Z,95918.91
2023-08-07T07:27:23.613Z,95915.97
2023-08-07T07:28:25.230Z,95920.22
2023-08-07T07:29:30.492Z,95912.28
2023-08-07T07:30:32.203Z,95928.66
2023-08-07T07:31:40.047Z,95928.38
2023-08-07T07:32:41.750Z,95923.88
2023-08-07T07:33:43.727Z,95928.09
2023-08-07T07:34:48.692Z,95929.94
2023-08-07T07:35:50.365Z,95940.25
2023-08-07T07:36:54.684Z,95934.69
2023-08-07T07:37:56.419Z,95924.41
2023-08-07T07:38:59.748Z,95936.03
2023-08-07T07:40:01.512Z,95940.53
2023-08-07T07:41:05.529Z,95938.66
2023-08-07T07:42:08.408Z,95941.81
2023-08-07T07:43:10.023Z,95914.34
2023-08-07T07:44:11.622Z,95942.63
2023-08-07T07:45:16.431Z,95941.53
2023-08-07T07:46:18.292Z,95937.84
2023-08-07T07:47:28.956Z,95952.94
2023-08-07T07:48:30.801Z,95954.50
2023-08-07T07:49:32.572Z,95946.28
2023-08-07T07:50:34.339Z,95934.94
2023-08-07T07:51:35.896Z,95947.06
2023-08-07T07:52:37.594Z,95955.00
2023-08-07T07:53:54.845Z,95949.72
2023-08-07T07:55:20.249Z,95961.59
2023-08-07T07:56:21.780Z,95962.41
2023-08-07T07:57:24.910Z,95962.41
2023-08-07T07:58:26.388Z,95955.25
2023-08-07T07:59:28.006Z,95967.69
2023-08-07T08:00:29.541Z,95960.81
2023-08-07T08:01:32.112Z,95950.75
2023-08-07T08:02:33.925Z,95956.81
2023-08-07T08:03:35.762Z,95971.91
2023-08-07T08:04:37.463Z,95973.47
2023-08-07T08:05:39.435Z,95964.75
2023-08-07T08:06:44.103Z,95971.13
2023-08-07T08:07:48.911Z,95973.47
2023-08-07T08:08:50.506Z,95977.19
2023-08-07T08:09:52.141Z,95982.47
2023-08-07T08:10:53.882Z,95974.53
2023-08-07T08:12:04.507Z,95984.06
2023-08-07T08:14:24.588Z,95977.19
2023-08-07T08:15:26.409Z,95990.41
2023-08-07T08:16:50.323Z,95992.00
2023-08-07T08:17:54.938Z,95977.19
2023-08-07T08:18:56.759Z,95981.13
2023-08-07T08:19:58.692Z,95981.94
2023-08-07T08:21:00.569Z,95987.22
2023-08-07T08:22:09.327Z,95991.41
2023-08-07T08:23:11.074Z,95997.50
2023-08-07T08:24:17.291Z,95985.09
2023-08-07T08:25:19.058Z,95985.09
2023-08-07T08:26:20.608Z,96003.28
2023-08-07T08:27:30.607Z,95984.53
2023-08-07T08:28:32.481Z,95995.09
2023-08-07T08:29:34.171Z,96000.38
2023-08-07T08:30:35.720Z,96007.25
2023-08-07T08:31:40.699Z,95994.03
2023-08-07T08:32:42.401Z,96006.19
2023-08-07T08:33:44.336Z,95997.47
2023-08-07T08:34:46.286Z,95999.84
2023-08-07T08:35:50.305Z,96011.97
2023-08-07T08:36:51.862Z,96016.22
2023-08-07T08:37:53.654Z,96015.94
2023-08-07T08:38:55.314Z,96017.50
2023-08-07T08:39:56.895Z,96014.88
2023-08-07T08:40:58.670Z,96016.47
2023-08-07T08:42:00.265Z,96015.66
2023-08-07T08:43:01.858Z,96011.97
2023-08-07T08:44:03.359Z,96020.66
2023-08-07T08:45:04.914Z,96024.63
2023-08-07T08:46:13.244Z,96023.56
2023-08-07T08:47:14.899Z,96031.50
2023-08-07T08:48:16.547Z,96024.06
2023-08-07T08:49:18.254Z,96015.06
2023-08-07T08:50:19.828Z,96015.88
2023-08-07T08:51:30.086Z,96027.22
2023-08-07T08:52:31.596Z,96031.75
2023-08-07T08:53:33.182Z,96037.81
2023-08-07T08:54:34.823Z,96044.41
2023-08-07T08:55:36.397Z,96033.81
2023-08-07T08:56:37.940Z,96039.91
2023-08-07T08:57:39.460Z,96039.63
2023-08-07T08:58:41.303Z,96037.78
2023-08-07T08:59:42.886Z,96042.00
2023-08-07T09:00:44.592Z,96042.00
2023-08-07T09:01:46.247Z,96037.50
2023-08-07T09:02:47.909Z,96048.06
2023-08-07T09:03:49.510Z,96055.72
2023-08-07T09:04:51.023Z,96043.59
2023-08-07T09:05:53.005Z,96056.50
2023-08-07T09:06:55.376Z,96047.00
2023-08-07T09:07:57.094Z,96055.72
2023-08-07T09:08:58.618Z,96040.66
2023-08-07T09:10:00.234Z,96043.59
2023-08-07T09:11:01.963Z,96065.53
2023-08-07T09:12:03.699Z,96061.28
2023-08-07T09:13:05.388Z,96045.72
2023-08-07T09:14:07.298Z,96060.78
2023-08-07T09:15:08.853Z,96068.72
2023-08-07T09:16:10.695Z,96070.56
2023-08-07T09:17:12.456Z,96071.34
2023-08-07T09:18:14.079Z,96055.78
2023-08-07T09:19:15.829Z,96070.06
2023-08-07T09:20:17.616Z,96062.13
2023-08-07T09:21:19.148Z,96065.56
2023-08-07T09:22:20.631Z,96050.25
2023-08-07T09:23:22.392Z,96066.13
2023-08-07T09:24:24.080Z,96064.25
2023-08-07T09:25:25.615Z,96073.22
2023-08-07T09:26:27.219Z,96078.53
2023-08-07T09:27:28.749Z,96082.50
2023-08-07T09:28:30.231Z,96079.09
2023-08-07T09:29:31.817Z,96073.00
2023-08-07T09:30:33.453Z,96083.59
2023-08-07T09:31:34.959Z,96076.44
2023-08-07T09:32:36.512Z,96079.88
2023-08-07T09:33:38.141Z,96083.28
2023-08-07T09:34:40.025Z,96080.38
2023-08-07T09:35:41.554Z,96073.53
2023-08-07T09:36:43.150Z,96081.16
2023-08-07T09:37:57.113Z,96083.03
2023-08-07T09:38:58.842Z,96088.31
2023-08-07T09:40:00.439Z,96083.53
2023-08-07T09:41:01.972Z,96086.19
2023-08-07T09:42:06.493Z,96085.41
2023-08-07T09:43:19.476Z,96099.16
2023-08-07T09:44:21.035Z,96091.22
2023-08-07T09:45:22.602Z,96093.59
2023-08-07T09:46:24.194Z,96085.66
2023-08-07T09:47:25.801Z,96092.81
2023-08-07T09:48:27.517Z,96080.38
2023-08-07T09:49:29.085Z,96098.88
2023-08-07T09:50:30.620Z,96106.03
2023-08-07T09:51:32.178Z,96096.22
2023-08-07T09:53:52.226Z,96097.28
2023-08-07T09:54:53.832Z,96095.97
2023-08-07T09:55:55.642Z,96109.19
2023-08-07T09:56:59.104Z,96098.59
2023-08-07T09:58:00.985Z,96099.38
2023-08-07T09:59:02.533Z,96101.25
2023-08-07T10:00:08.423Z,96104.94
2023-08-07T10:01:10.296Z,96091.72
2023-08-07T10:02:14.819Z,96107.31
2023-08-07T10:03:16.586Z,96104.41
2023-08-07T10:05:39.420Z,96102.81
2023-08-07T10:06:48.744Z,96107.84
2023-08-07T10:07:50.416Z,96114.69
2023-08-07T10:08:52.973Z,96111.00
2023-08-07T10:09:54.469Z,96114.44
2023-08-07T10:10:56.038Z,96116.03
2023-08-07T10:12:01.391Z,96114.94
2023-08-07T10:13:02.975Z,96108.59
2023-08-07T10:14:04.627Z,96116.25
2023-08-07T10:15:06.146Z,96109.91
2023-08-07T10:16:07.889Z,96114.94
2023-08-07T10:17:10.864Z,96110.41
2023-08-07T10:18:12.506Z,96118.09
2023-08-07T10:19:15.180Z,96113.56
2023-08-07T10:20:24.428Z,96103.50
2023-08-07T10:21:27.234Z,96120.97
2023-08-07T10:22:31.702Z,96118.06
2023-08-07T10:23:33.467Z,96124.16
2023-08-07T10:24:35.131Z,96118.56
2023-08-07T10:25:36.803Z,96117.53
2023-08-07T10:26:53.571Z,96124.38
2023-08-07T10:27:55.397Z,96116.19
2023-08-07T10:28:57.065Z,96113.25
2023-08-07T10:29:58.752Z,96119.34
2023-08-07T10:31:00.565Z,96121.97
2023-08-07T10:32:02.220Z,96115.66
2023-08-07T10:33:07.036Z,96129.38
2023-08-07T10:34:17.762Z,96126.47
2023-08-07T10:35:19.283Z,96127.78
2023-08-07T10:36:20.847Z,96126.69
2023-08-07T10:37:22.391Z,96120.34
2023-08-07T10:38:26.463Z,96126.94
2023-08-07T10:39:28.221Z,96126.66
2023-08-07T10:40:29.862Z,96134.84
2023-08-07T10:42:55.477Z,96133.50
2023-08-07T10:43:57.320Z,96134.00
2023-08-07T10:44:58.874Z,96119.44
2023-08-07T10:46:06.336Z,96112.00
2023-08-07T10:47:08.043Z,96129.19
2023-08-07T10:48:09.710Z,96131.53
2023-08-07T10:49:14.330Z,96126.75
2023-08-07T10:50:15.832Z,96139.72
2023-08-07T10:51:23.499Z,96137.09
2023-08-07T10:52:25.353Z,96121.44
2023-08-07T10:53:27.017Z,96133.63
2023-08-07T10:54:28.545Z,96137.84
2023-08-07T10:55:36.148Z,96136.50
2023-08-07T10:56:37.803Z,96137.00
2023-08-07T10:57:39.335Z,96129.56
2023-08-07T10:58:41.078Z,96140.97
2023-08-07T10:59:42.912Z,96143.84
2023-08-07T11:00:44.687Z,96131.41
2023-08-07T11:01:46.323Z,96140.91
2023-08-07T11:02:53.654Z,96131.91
2023-08-07T11:03:55.482Z,96133.78
2023-08-07T11:04:57.205Z,96131.91
2023-08-07T11:06:05.079Z,96136.94
2023-08-07T11:07:12.826Z,96132.16
2023-08-07T11:08:20.003Z,96137.44
2023-08-07T11:09:21.638Z,96140.88
2023-08-07T11:10:23.311Z,96132.34
2023-08-07T11:11:28.225Z,96146.41
2023-08-07T11:12:41.714Z,96138.47
2023-08-07T11:13:43.419Z,96131.03
2023-08-07T11:14:44.993Z,96138.16
2023-08-07T11:15:46.559Z,96143.19
2023-08-07T11:16:48.332Z,96139.75
2023-08-07T11:18:00.199Z,96143.19
2023-08-07T11:19:04.247Z,96126.50
2023-08-07T11:20:15.231Z,96141.31
2023-08-07T11:21:21.333Z,96144.78
2023-08-07T11:22:23.093Z,96143.69
2023-08-07T11:23:24.642Z,96132.06
2023-08-07T11:24:37.116Z,96143.16
2023-08-07T11:25:41.953Z,96146.59
2023-08-07T11:26:43.899Z,96140.50
2023-08-07T11:27:45.432Z,96145.81
2023-08-07T11:28:47.278Z,96145.03
2023-08-07T11:29:49.013Z,96151.09
2023-08-07T11:30:50.635Z,96129.63
2023-08-07T11:31:55.081Z,96147.38
2023-08-07T11:33:08.672Z,96149.75
2023-08-07T11:34:10.200Z,96141.81
2023-08-07T11:35:11.865Z,96152.13
2023-08-07T11:36:13.783Z,96152.13
2023-08-07T11:38:42.819Z,96147.09
2023-08-07T11:39:50.561Z,96143.66
2023-08-07T11:41:01.034Z,96148.19
2023-08-07T11:42:02.905Z,96147.09
2023-08-07T11:43:25.361Z,96149.75
2023-08-07T11:44:29.906Z,96140.75
2023-08-07T11:47:34.929Z,96157.69
2023-08-07T11:48:18.425Z,96147.88
2023-08-07T11:49:20.327Z,96154.00
2023-08-07T11:50:24.076Z,96148.69
2023-08-07T11:51:25.849Z,96152.63
2023-08-07T11:52:39.120Z,96148.38
2023-08-07T11:53:43.468Z,96156.84
2023-08-07T11:54:56.605Z,96155.00
2023-08-07T11:56:04.253Z,96161.09
2023-08-07T11:57:08.419Z,96143.31
2023-08-07T11:58:15.769Z,96156.28
2023-08-07T11:59:40.036Z,96147.00
2023-08-07T12:00:53.604Z,96163.69
2023-08-07T12:03:13.793Z,96156.28
2023-08-07T12:04:21.235Z,96147.53
2023-08-07T12:05:26.078Z,96159.72
2023-08-07T12:06:27.893Z,96159.44
2023-08-07T12:07:32.356Z,96163.94
2023-08-07T12:08:39.351Z,96170.84
2023-08-07T12:09:42.952Z,96167.41
2023-08-07T12:10:44.728Z,96160.22
2023-08-07T12:11:56.830Z,96175.03
2023-08-07T12:12:58.485Z,96175.84
2023-08-07T12:14:00.123Z,96166.81
2023-08-07T12:15:01.846Z,96166.81
2023-08-07T12:16:03.476Z,96175.56
2023-08-07T12:17:05.324Z,96170.25
2023-08-07T12:18:06.861Z,96171.84
2023-08-07T12:19:12.987Z,96169.19
2023-08-07T12:20:23.818Z,96164.69
2023-08-07T12:21:25.973Z,96179.00
2023-08-07T12:23:46.434Z,96179.00
2023-08-07T12:24:47.975Z,96181.94
2023-08-07T12:25:49.589Z,96172.41
2023-08-07T12:26:58.897Z,96175.03
2023-08-07T12:28:00.851Z,96170.06
2023-08-07T12:29:02.372Z,96173.47
2023-08-07T12:30:04.139Z,96177.19
2023-08-07T12:32:41.840Z,96151.25
2023-08-07T12:33:45.173Z,96168.47
2023-08-07T12:35:51.286Z,96145.69
2023-08-07T12:37:04.280Z,96170.31
2023-08-07T12:38:08.814Z,96163.97
2023-08-07T12:39:13.311Z,96169.00
2023-08-07T12:42:32.900Z,96177.72
2023-08-07T12:43:34.449Z,96164.47